航空気象通報

ウインドサーファーのための航空気象通報による風予報です。

4/21-4/23の航空気象通報

2017年04月22日 01時13分27秒 | TAF
羽田空港
TAF RJTT 211107Z 2112/2218 22004KT 9999 FEW015 SCT030
BECMG 2112/2114 34005KT
BECMG 2200/2203 12006KT
BECMG 2206/2209 18010KT
BECMG 2209/2212 34014KT
日本時間21日21時:220度から4ノットの風
21-23時:風が変化
23時-22日09時:340度から5ノットの風
09-12時:風が変化
12-15時:120度から6ノットの風
15-18時:風が変化
18時:180度から10ノットの風
18-21時:風が変化
21時-23日03時:340度から14ノットの風


静岡空港
TAF RJNS 211105Z 2112/2218 28006KT 9999 FEW010
TEMPO 2117/2121 FEW005 BKN008
BECMG 2200/2203 16010KT
BECMG 2209/2212 35004KT
日本時間21日21時-22日09時:280度から6ノットの風
09-12時:風が変化
12-18時:160度から10ノットの風
18-21時:風が変化
21時-23日03時:350度から4ノットの風


福岡空港
TAF RJFF 211106Z 2112/2218 01005KT 9999 FEW040
BECMG 2113/2115 15004KT
BECMG 2200/2203 34015KT
BECMG 2212/2215 15006KT
日本時間21日21-22時:010度から5ノットの風
22-24時:風が変化
22日00-09時:150度から4ノットの風
09-12時:風が変化
12-21時:340度から15ノットの風
21-24時:風が変化
23日00-03時:150度から6ノットの風


那覇空港
TAF ROAH 211105Z 2112/2218 36012KT 9999 FEW010 BKN020
TEMPO 2116/2121 4000 SHRA
日本時間21日21時-23日03時:360度から12ノットの風

但し、22日01-06時の間:ときどき

石垣空港
TAF ROIG 211107Z 2112/2218 01016KT 9999 FEW008 BKN015
TEMPO 2114/2116 01020G30KT 3000 TSRA SCT006 BKN010 SCT020CB
日本時間21日21時-23日03時:010度から16ノットの風
但し、21日23時-22日01時の間:ときどき010度から20ノット、突風30ノット

但し、21日23時-22日01時の間:ときどき

マウイのカフルイ空港
PHOG 211505Z 2115/2212 03007KT P6SM VCSH SCT010 SCT020 BKN035
TEMPO 2115/2118 3SM SHRA BR SCT007 BKN020 OVC030
FM212000 04015G25KT P6SM VCSH SCT025 BKN045
FM220600 05010KT P6SM SCT025 BKN050 AMD LTD TO WIND TIL 211600
ハワイ時間21日02-10時:030度から7ノットの風
10-20時:040度から15ノット、突風25ノット
20時-22日02時:050度から10ノットの風


サイパン空港
TAF PGSN 211126Z 2112/2212 08013KT P6SM VCSH SCT020 SCT040
マリアナ時間21日22時-22日22時:080度から13ノットの風
ジャンル:
お天気
コメント   この記事についてブログを書く
この記事をはてなブックマークに追加
« 4/19-4/21の航空気象通報 | トップ | 4/22-4/24の航空気象通報 »
最近の画像もっと見る

コメントを投稿

ブログ作成者から承認されるまでコメントは反映されません。

コメント利用規約に同意の上コメント投稿を行ってください。

数字4桁を入力し、投稿ボタンを押してください。

あわせて読む

トラックバック

この記事のトラックバック  Ping-URL
ブログ作成者から承認されるまでトラックバックは反映されません。
  • 30日以上前の記事に対するトラックバックは受け取らないよう設定されております。
  • 送信元の記事内容が半角英数のみのトラックバックは受け取らないよう設定されております。
  • このブログへのリンクがない記事からのトラックバックは受け取らないよう設定されております。
  • ※ブログ管理者のみ、編集画面で設定の変更が可能です。